Time;durP1;ratioP1;P1;durP2;ratioP2;P2;SDS_P1;SDS_P2;PMS_P1;PMS_P2;Temp;Humidity;BMP_temperature;BMP_pressure;BME280_temperature;BME280_humidity;BME280_pressure;Samples;Min_cycle;Max_cycle;Signal;HPM_P1;HPM_P2
2021/07/19 00:00:46;;;;;;;5.50;2.45;;;26.20;50.10;;;;;;5052442;28;20025;-69
2021/07/19 00:03:11;;;;;;;2.58;2.13;;;26.20;50.20;;;;;;5052018;28;20025;-73
2021/07/19 00:05:41;;;;;;;7.57;3.17;;;26.20;50.10;;;;;;5051706;28;20113;-76
2021/07/19 00:08:06;;;;;;;3.88;1.80;;;26.20;48.50;;;;;;5052317;28;20071;-74
2021/07/19 00:10:35;;;;;;;3.50;1.90;;;26.20;46.90;;;;;;5052153;28;20041;-70
2021/07/19 00:13:03;;;;;;;4.45;1.90;;;26.30;47.00;;;;;;5052216;28;20021;-72
2021/07/19 00:15:28;;;;;;;4.07;2.10;;;26.30;46.80;;;;;;5051886;28;20534;-65
2021/07/19 00:17:55;;;;;;;2.72;1.90;;;26.30;47.20;;;;;;5054879;28;20021;-79
2021/07/19 00:20:21;;;;;;;2.50;2.03;;;26.40;47.70;;;;;;5055768;28;20032;-67
2021/07/19 00:22:47;;;;;;;4.05;1.80;;;26.40;47.20;;;;;;5055773;28;20526;-72
2021/07/19 00:25:15;;;;;;;4.63;1.90;;;26.40;47.00;;;;;;5055456;28;20021;-79
2021/07/19 00:27:42;;;;;;;5.07;1.70;;;26.40;46.30;;;;;;5055509;28;20029;-80
2021/07/19 00:30:10;;;;;;;2.10;1.45;;;26.40;46.20;;;;;;5055253;28;20033;-74
2021/07/19 00:32:39;;;;;;;3.75;1.63;;;26.40;45.80;;;;;;5055509;28;20025;-79
2021/07/19 00:35:06;;;;;;;9.02;1.70;;;26.40;45.80;;;;;;5055505;28;20023;-73
2021/07/19 00:37:32;;;;;;;3.00;1.92;;;26.50;45.90;;;;;;5055135;28;20472;-76
2021/07/19 00:39:58;;;;;;;9.40;1.70;;;26.50;45.90;;;;;;5054721;28;20021;-64
2021/07/19 00:42:24;;;;;;;6.95;1.85;;;26.50;45.40;;;;;;5054979;28;20029;-79
2021/07/19 00:44:50;;;;;;;2.22;1.60;;;26.50;45.60;;;;;;5054823;28;20123;-80
2021/07/19 00:47:17;;;;;;;5.03;1.70;;;26.50;45.80;;;;;;5055099;28;20029;-69
2021/07/19 00:49:44;;;;;;;3.50;1.80;;;26.50;46.20;;;;;;5055053;28;20079;-73
2021/07/19 00:52:11;;;;;;;3.33;1.73;;;26.50;46.20;;;;;;5055044;28;20380;-78
2021/07/19 00:54:38;;;;;;;1.98;1.75;;;26.50;46.20;;;;;;5055000;28;20102;-70
2021/07/19 00:57:05;;;;;;;4.07;1.75;;;26.40;46.30;;;;;;5054971;28;20495;-70
2021/07/19 00:59:33;;;;;;;2.35;1.70;;;26.40;45.90;;;;;;5051940;28;20061;-70
2021/07/19 01:02:02;;;;;;;5.32;1.80;;;26.50;45.90;;;;;;5052371;28;20021;-71
2021/07/19 01:04:30;;;;;;;6.25;1.90;;;26.40;45.80;;;;;;5052668;28;20032;-66
2021/07/19 01:07:03;;;;;;;5.53;1.80;;;26.40;46.00;;;;;;5054329;28;20211;-65
2021/07/19 01:09:30;;;;;;;6.07;1.92;;;26.40;46.20;;;;;;5054613;28;20036;-69
2021/07/19 01:12:00;;;;;;;2.67;1.90;;;26.40;46.40;;;;;;5054526;28;20120;-73
2021/07/19 01:14:26;;;;;;;4.35;2.13;;;26.30;46.30;;;;;;5054170;28;20036;-68
2021/07/19 01:16:53;;;;;;;4.13;2.03;;;26.30;46.00;;;;;;5054449;28;20047;-74
2021/07/19 01:19:24;;;;;;;3.38;2.00;;;26.30;46.10;;;;;;5054541;28;20028;-69
2021/07/19 01:21:55;;;;;;;4.25;1.95;;;26.40;46.30;;;;;;5054375;28;20033;-71
2021/07/19 01:24:37;;;;;;;5.15;2.40;;;26.40;45.70;;;;;;5054459;28;20048;-74
2021/07/19 01:27:36;;;;;;;3.65;2.00;;;26.40;45.10;;;;;;5054493;28;20029;-75
2021/07/19 01:30:06;;;;;;;7.47;2.20;;;26.40;44.80;;;;;;5053699;28;20040;-76
2021/07/19 01:32:38;;;;;;;4.53;2.20;;;26.50;44.50;;;;;;5053633;28;20491;-71
2021/07/19 01:35:05;;;;;;;4.65;2.00;;;26.50;44.80;;;;;;5054064;28;20025;-74
2021/07/19 01:37:32;;;;;;;2.92;1.90;;;26.50;44.90;;;;;;5054202;28;20020;-67
2021/07/19 01:40:00;;;;;;;5.10;2.60;;;26.50;45.10;;;;;;5053843;28;20039;-68
2021/07/19 01:42:26;;;;;;;2.83;2.20;;;26.50;45.40;;;;;;5054019;28;20032;-73
2021/07/19 01:44:53;;;;;;;3.72;2.10;;;26.40;45.50;;;;;;5053607;28;20045;-73
2021/07/19 01:47:20;;;;;;;4.75;2.05;;;26.40;45.80;;;;;;5053721;28;20021;-75
2021/07/19 01:49:51;;;;;;;3.90;2.10;;;26.40;45.70;;;;;;5053992;28;20044;-70
2021/07/19 01:52:25;;;;;;;5.43;2.42;;;26.40;45.00;;;;;;5053522;28;20376;-67
2021/07/19 01:54:53;;;;;;;4.90;2.53;;;26.40;44.50;;;;;;5053763;28;20063;-65
2021/07/19 01:57:21;;;;;;;4.43;2.58;;;26.40;44.30;;;;;;5053796;28;20033;-73
2021/07/19 01:59:47;;;;;;;5.40;2.42;;;26.50;44.10;;;;;;5052137;28;20033;-71
2021/07/19 02:02:18;;;;;;;6.63;2.42;;;26.50;44.10;;;;;;5053601;28;20385;-63
2021/07/19 02:05:12;;;;;;;2.88;1.92;;;26.50;43.80;;;;;;5053354;28;20108;-72
2021/07/19 02:07:51;;;;;;;3.00;1.90;;;26.50;44.00;;;;;;5053641;28;20068;-77
2021/07/19 02:10:20;;;;;;;5.57;2.70;;;26.50;44.20;;;;;;5053337;28;20041;-78
2021/07/19 02:13:02;;;;;;;4.63;2.53;;;26.50;44.10;;;;;;5053453;28;20031;-80
2021/07/19 02:15:32;;;;;;;7.15;2.17;;;26.50;44.10;;;;;;5052211;28;20436;-76
2021/07/19 02:18:17;;;;;;;5.18;2.13;;;26.50;44.40;;;;;;5054248;28;20041;-79
2021/07/19 02:21:24;;;;;;;4.88;2.33;;;26.50;44.50;;;;;;5053446;28;20416;-80
2021/07/19 02:23:52;;;;;;;6.57;2.58;;;26.50;44.00;;;;;;5053003;28;20468;-82
2021/07/19 02:26:19;;;;;;;5.45;2.35;;;26.50;43.80;;;;;;5053274;28;20033;-80
2021/07/19 02:28:46;;;;;;;4.45;2.10;;;26.50;43.80;;;;;;5052859;28;20025;-72
2021/07/19 02:31:15;;;;;;;6.13;2.45;;;26.50;43.10;;;;;;5053151;28;20158;-78
2021/07/19 02:33:41;;;;;;;5.18;2.10;;;26.50;42.80;;;;;;5053217;28;20025;-78
2021/07/19 02:36:07;;;;;;;6.57;2.45;;;26.50;42.20;;;;;;5053003;28;20033;-81
2021/07/19 02:38:34;;;;;;;4.88;2.47;;;26.50;42.40;;;;;;5053039;28;20075;-70
2021/07/19 02:41:01;;;;;;;4.05;2.10;;;26.50;42.60;;;;;;5052758;28;20112;-80
2021/07/19 02:43:28;;;;;;;3.35;2.20;;;26.50;43.10;;;;;;5052997;28;20433;-81
2021/07/19 02:45:55;;;;;;;3.90;2.63;;;26.50;43.10;;;;;;5052747;28;20128;-80
2021/07/19 02:48:23;;;;;;;3.88;2.35;;;26.50;43.00;;;;;;5052620;28;20033;-80
2021/07/19 02:50:53;;;;;;;16.80;3.72;;;26.50;43.10;;;;;;5052775;28;20053;-80
2021/07/19 02:53:21;;;;;;;8.35;2.70;;;26.50;42.90;;;;;;5052521;28;20362;-81
2021/07/19 02:55:48;;;;;;;5.57;2.53;;;26.50;43.10;;;;;;5052865;28;20025;-79
2021/07/19 02:58:16;;;;;;;3.47;2.40;;;26.40;43.30;;;;;;5052848;28;20029;-74
2021/07/19 03:00:42;;;;;;;5.95;2.22;;;26.50;42.80;;;;;;5052981;28;20495;-72
2021/07/19 03:03:13;;;;;;;8.85;2.72;;;26.50;42.20;;;;;;5052827;28;20033;-76
2021/07/19 03:05:44;;;;;;;3.47;2.20;;;26.50;41.60;;;;;;5052740;28;20032;-76
2021/07/19 03:08:13;;;;;;;3.70;2.30;;;26.50;41.70;;;;;;5052639;28;20044;-80
2021/07/19 03:10:41;;;;;;;7.15;2.97;;;26.50;42.30;;;;;;5052707;28;20044;-79
2021/07/19 03:13:12;;;;;;;5.28;2.53;;;26.50;42.60;;;;;;5052340;28;20055;-71
2021/07/19 03:15:39;;;;;;;6.32;2.22;;;26.50;42.40;;;;;;5052423;28;20107;-70
2021/07/19 03:18:08;;;;;;;6.95;2.67;;;26.50;42.00;;;;;;5052379;28;20106;-80
2021/07/19 03:20:42;;;;;;;7.95;2.88;;;26.50;41.80;;;;;;5052621;28;20021;-77
2021/07/19 03:23:13;;;;;;;3.78;2.40;;;26.50;42.00;;;;;;5052644;28;20028;-70
2021/07/19 03:25:43;;;;;;;7.28;2.30;;;26.50;42.20;;;;;;5052734;28;20102;-81
2021/07/19 03:28:09;;;;;;;7.55;2.90;;;26.50;42.30;;;;;;5052755;28;20384;-79
2021/07/19 03:30:36;;;;;;;4.35;2.50;;;26.50;42.00;;;;;;5052394;28;20040;-78
2021/07/19 03:33:03;;;;;;;8.52;3.22;;;26.50;42.10;;;;;;5052667;28;20043;-80
2021/07/19 03:35:33;;;;;;;4.63;2.55;;;26.40;41.90;;;;;;5052326;28;20036;-79
2021/07/19 03:38:03;;;;;;;4.57;2.38;;;26.40;42.10;;;;;;5052829;28;20385;-76
2021/07/19 03:40:30;;;;;;;7.30;2.70;;;26.40;41.60;;;;;;5052565;28;20409;-77
2021/07/19 03:42:58;;;;;;;5.82;2.55;;;26.40;41.40;;;;;;5052368;28;20037;-79
2021/07/19 03:45:25;;;;;;;6.03;2.50;;;26.40;41.10;;;;;;5052173;28;20037;-76
2021/07/19 03:47:51;;;;;;;4.97;2.60;;;26.40;40.50;;;;;;5052441;28;20045;-76
2021/07/19 03:50:18;;;;;;;8.20;2.65;;;26.40;40.80;;;;;;5052540;28;20037;-79
2021/07/19 03:52:46;;;;;;;9.43;2.67;;;26.40;40.80;;;;;;5055072;28;20025;-77
2021/07/19 03:55:15;;;;;;;8.02;2.80;;;26.40;40.80;;;;;;5056220;28;20025;-79
2021/07/19 03:57:42;;;;;;;10.95;3.55;;;26.40;41.00;;;;;;5056205;28;20028;-80
2021/07/19 04:00:10;;;;;;;10.40;2.70;;;26.40;41.40;;;;;;5055950;28;20033;-74
2021/07/19 04:02:37;;;;;;;6.72;3.17;;;26.40;41.30;;;;;;5056269;28;20028;-74
2021/07/19 04:05:06;;;;;;;5.32;2.80;;;26.40;41.10;;;;;;5055808;28;20041;-77
2021/07/19 04:07:36;;;;;;;7.10;3.13;;;26.40;40.90;;;;;;5055677;28;20021;-77
2021/07/19 04:10:07;;;;;;;5.93;2.70;;;26.40;41.10;;;;;;5055781;28;20041;-77
2021/07/19 04:12:35;;;;;;;9.63;3.13;;;26.40;41.20;;;;;;5055869;28;20498;-71
2021/07/19 04:15:02;;;;;;;10.20;2.95;;;26.40;41.40;;;;;;5055618;28;20029;-70
2021/07/19 04:17:31;;;;;;;9.55;3.20;;;26.40;41.80;;;;;;5055954;28;20436;-80
2021/07/19 04:20:17;;;;;;;6.50;3.05;;;26.40;41.80;;;;;;5055618;28;20021;-80
2021/07/19 04:22:44;;;;;;;6.45;3.15;;;26.40;41.40;;;;;;5055284;28;20035;-79
2021/07/19 04:25:11;;;;;;;5.75;3.15;;;26.30;41.70;;;;;;5055152;28;20106;-81
2021/07/19 04:27:39;;;;;;;13.75;3.17;;;26.30;42.00;;;;;;5055618;28;20060;-76
2021/07/19 04:30:06;;;;;;;5.93;3.10;;;26.30;42.00;;;;;;5055676;28;20036;-82
2021/07/19 04:32:37;;;;;;;6.30;3.13;;;26.20;41.40;;;;;;5055419;28;20021;-80
2021/07/19 04:35:03;;;;;;;6.53;2.90;;;26.20;40.70;;;;;;5055580;28;20028;-78
2021/07/19 04:37:29;;;;;;;7.63;3.15;;;26.30;40.60;;;;;;5055323;28;20104;-76
2021/07/19 04:39:55;;;;;;;8.25;3.20;;;26.30;41.00;;;;;;5055370;28;20059;-80
2021/07/19 04:42:20;;;;;;;6.00;2.83;;;26.30;40.80;;;;;;5054814;28;20473;-73
2021/07/19 04:44:46;;;;;;;7.95;3.10;;;26.40;40.90;;;;;;5054913;28;20044;-79
2021/07/19 04:47:14;;;;;;;6.88;2.92;;;26.40;41.10;;;;;;5054955;28;20051;-78
2021/07/19 04:49:41;;;;;;;5.78;2.75;;;26.40;41.50;;;;;;5054879;28;20029;-80
2021/07/19 04:52:07;;;;;;;10.35;3.20;;;26.40;41.70;;;;;;5054823;28;20036;-78
2021/07/19 04:54:38;;;;;;;12.73;2.95;;;26.40;41.70;;;;;;5055171;28;20104;-73
2021/07/19 04:57:06;;;;;;;16.77;3.38;;;26.40;41.70;;;;;;5054959;28;20025;-78
2021/07/19 04:59:43;;;;;;;7.70;3.30;;;26.40;42.00;;;;;;5055058;28;20418;-79
2021/07/19 05:02:13;;;;;;;7.18;2.40;;;26.40;42.20;;;;;;5056003;28;20428;-73
2021/07/19 05:04:43;;;;;;;12.85;3.90;;;26.40;43.10;;;;;;5055030;28;20444;-62
2021/07/19 05:07:12;;;;;;;6.53;2.70;;;26.40;43.00;;;;;;5055131;28;20040;-63
2021/07/19 05:09:42;;;;;;;5.75;3.15;;;26.40;44.60;;;;;;5054789;28;20024;-63
2021/07/19 05:12:20;;;;;;;8.98;3.05;;;26.30;46.30;;;;;;5054798;28;20025;-63
2021/07/19 05:14:47;;;;;;;7.05;2.90;;;26.30;48.00;;;;;;5054616;28;20047;-62
2021/07/19 05:17:14;;;;;;;5.03;3.00;;;26.20;48.70;;;;;;5054857;28;20028;-64
2021/07/19 05:19:41;;;;;;;9.98;2.90;;;26.20;49.30;;;;;;5054977;28;20028;-67
2021/07/19 05:22:25;;;;;;;7.28;2.83;;;26.10;49.70;;;;;;5054968;28;20060;-64
2021/07/19 05:24:56;;;;;;;6.18;2.92;;;26.10;51.00;;;;;;5054342;28;20100;-69
2021/07/19 05:27:22;;;;;;;5.82;2.90;;;26.00;52.00;;;;;;5053985;28;20029;-65
2021/07/19 05:29:50;;;;;;;4.63;2.78;;;26.00;52.20;;;;;;5053655;28;20558;-65
2021/07/19 05:32:16;;;;;;;7.68;3.15;;;26.00;52.60;;;;;;5053233;28;20409;-64
2021/07/19 05:34:42;;;;;;;5.45;3.03;;;26.00;53.30;;;;;;5054127;28;20044;-76
2021/07/19 05:37:07;;;;;;;10.13;2.88;;;26.00;53.60;;;;;;5054263;28;20017;-67
2021/07/19 05:39:33;;;;;;;11.77;3.70;;;25.90;53.70;;;;;;5053652;28;20436;-70
2021/07/19 05:41:59;;;;;;;12.40;3.28;;;25.90;53.60;;;;;;5053910;28;20021;-70
2021/07/19 05:44:25;;;;;;;10.05;3.03;;;25.90;53.60;;;;;;5053807;28;20507;-77
2021/07/19 05:46:51;;;;;;;8.77;2.80;;;25.90;53.70;;;;;;5054256;28;20135;-75
2021/07/19 05:49:17;;;;;;;4.97;2.80;;;25.90;54.20;;;;;;5053975;28;20510;-74
2021/07/19 05:51:45;;;;;;;11.60;3.17;;;25.80;54.60;;;;;;5054258;28;20051;-76
2021/07/19 05:54:11;;;;;;;4.90;3.00;;;25.80;55.00;;;;;;5054099;28;20025;-76
2021/07/19 05:56:37;;;;;;;11.52;3.40;;;25.80;55.00;;;;;;5053876;28;20032;-71
2021/07/19 05:59:03;;;;;;;6.53;2.85;;;25.80;54.90;;;;;;5053507;28;20059;-69
2021/07/19 06:01:29;;;;;;;9.98;3.55;;;25.70;54.90;;;;;;5053895;28;20021;-76
2021/07/19 06:03:55;;;;;;;7.45;2.92;;;25.70;55.30;;;;;;5053281;28;20151;-74
2021/07/19 06:06:21;;;;;;;6.13;3.47;;;25.70;54.90;;;;;;5053178;28;20143;-75
2021/07/19 06:08:47;;;;;;;8.50;2.92;;;25.70;55.30;;;;;;5053041;28;20475;-76
2021/07/19 06:11:12;;;;;;;7.00;3.08;;;25.70;55.40;;;;;;5053385;28;20029;-76
2021/07/19 06:13:45;;;;;;;6.97;2.90;;;25.70;55.30;;;;;;5053515;28;20022;-75
2021/07/19 06:16:11;;;;;;;8.40;4.18;;;25.70;55.30;;;;;;5053464;28;20032;-76
2021/07/19 06:18:39;;;;;;;7.40;3.63;;;25.70;55.50;;;;;;5053769;28;20381;-76
2021/07/19 06:21:05;;;;;;;12.70;3.20;;;25.70;56.00;;;;;;5053599;28;20025;-64
2021/07/19 06:23:32;;;;;;;5.68;3.05;;;25.70;56.10;;;;;;5053138;28;20052;-63
2021/07/19 06:25:58;;;;;;;11.25;3.17;;;25.70;56.70;;;;;;5053119;28;20025;-64
2021/07/19 06:28:24;;;;;;;4.97;3.00;;;25.70;57.40;;;;;;5053166;28;20095;-64
2021/07/19 06:30:53;;;;;;;8.07;3.22;;;25.70;57.70;;;;;;5053445;28;20392;-64
2021/07/19 06:33:19;;;;;;;10.15;3.50;;;25.70;57.50;;;;;;5053511;28;20025;-64
2021/07/19 06:35:45;;;;;;;6.57;3.33;;;25.70;56.80;;;;;;5053603;28;20511;-64
2021/07/19 06:38:10;;;;;;;7.43;3.30;;;25.70;56.30;;;;;;5053539;28;20025;-64
2021/07/19 06:40:36;;;;;;;7.43;3.35;;;25.70;56.30;;;;;;5053330;28;20091;-64
2021/07/19 06:45:36;;;;;;;10.55;3.10;;;25.70;56.90;;;;;;5071756;28;20049;-71
2021/07/19 06:48:03;;;;;;;4.60;3.03;;;25.80;56.90;;;;;;5073491;28;20035;-73
2021/07/19 06:50:28;;;;;;;6.05;2.83;;;25.80;56.80;;;;;;5073452;28;20115;-71
2021/07/19 06:52:54;;;;;;;5.68;2.85;;;25.90;56.60;;;;;;5073062;28;20060;-70
2021/07/19 06:55:20;;;;;;;5.07;3.10;;;25.90;56.70;;;;;;5073099;28;20434;-72
2021/07/19 06:57:48;;;;;;;6.07;2.83;;;25.90;56.70;;;;;;5073326;28;20029;-72
2021/07/19 07:00:14;;;;;;;6.03;2.88;;;26.00;56.80;;;;;;5073326;28;20066;-72
2021/07/19 07:02:40;;;;;;;9.20;3.15;;;26.00;56.70;;;;;;5073107;28;20028;-71
2021/07/19 07:05:06;;;;;;;4.55;2.60;;;26.00;56.40;;;;;;5072895;28;20387;-71
2021/07/19 07:07:32;;;;;;;12.25;3.20;;;26.00;56.40;;;;;;5073156;28;20047;-69
2021/07/19 07:10:06;;;;;;;7.20;3.47;;;26.00;56.30;;;;;;5073390;28;20119;-69
2021/07/19 07:12:32;;;;;;;8.30;3.42;;;26.10;56.50;;;;;;5073348;28;20431;-70
2021/07/19 07:14:58;;;;;;;13.90;2.85;;;26.10;56.50;;;;;;5072868;28;20028;-72
2021/07/19 07:17:26;;;;;;;5.88;2.78;;;26.20;56.60;;;;;;5073201;28;20071;-71
2021/07/19 07:19:53;;;;;;;4.03;2.65;;;26.20;56.40;;;;;;5072946;28;20021;-68
2021/07/19 07:22:19;;;;;;;7.28;2.72;;;26.30;56.30;;;;;;5072944;28;20028;-71
2021/07/19 07:24:45;;;;;;;6.95;2.58;;;26.40;55.70;;;;;;5072929;28;20107;-72
2021/07/19 07:27:12;;;;;;;9.75;2.88;;;26.40;55.20;;;;;;5074862;28;20392;-71
2021/07/19 07:29:38;;;;;;;7.05;2.70;;;26.50;54.70;;;;;;5077217;28;20055;-72
2021/07/19 07:32:05;;;;;;;7.05;2.90;;;26.50;54.60;;;;;;5077312;28;20421;-68
2021/07/19 07:34:31;;;;;;;5.95;2.72;;;26.60;54.70;;;;;;5076775;28;20020;-68
2021/07/19 07:36:57;;;;;;;6.88;3.00;;;26.70;55.10;;;;;;5076963;28;20115;-68
2021/07/19 07:39:22;;;;;;;6.50;2.70;;;26.70;55.40;;;;;;5076761;28;20020;-72
2021/07/19 07:41:48;;;;;;;12.98;3.33;;;26.60;55.40;;;;;;5077030;28;20529;-72
2021/07/19 07:44:14;;;;;;;6.05;3.00;;;26.70;55.40;;;;;;5076556;28;20041;-70
2021/07/19 07:46:43;;;;;;;6.07;3.17;;;26.60;55.50;;;;;;5076808;28;20469;-68
2021/07/19 07:49:09;;;;;;;8.55;3.20;;;26.60;56.00;;;;;;5076553;28;20023;-71
2021/07/19 07:51:34;;;;;;;8.30;3.33;;;26.60;56.50;;;;;;5076864;28;20032;-69
2021/07/19 07:54:00;;;;;;;9.15;3.25;;;26.60;55.50;;;;;;5076528;28;20066;-68
2021/07/19 07:56:27;;;;;;;8.60;2.95;;;26.60;55.50;;;;;;5076704;28;20036;-71
2021/07/19 07:58:52;;;;;;;8.85;3.15;;;26.70;54.90;;;;;;5076421;28;20021;-68
2021/07/19 08:01:18;;;;;;;10.10;3.47;;;26.70;54.00;;;;;;5076369;28;20479;-71
2021/07/19 08:03:44;;;;;;;11.05;3.90;;;26.80;54.70;;;;;;5076084;28;20476;-71
2021/07/19 08:06:10;;;;;;;6.95;2.97;;;26.80;52.30;;;;;;5076481;28;20103;-70
2021/07/19 08:08:36;;;;;;;10.45;3.92;;;26.90;51.50;;;;;;5076719;28;20063;-69
2021/07/19 08:11:03;;;;;;;11.02;3.60;;;27.00;50.10;;;;;;5076302;28;20439;-70
2021/07/19 08:13:29;;;;;;;13.80;3.92;;;27.10;49.20;;;;;;5076202;28;20431;-69
2021/07/19 08:15:55;;;;;;;8.18;3.55;;;27.20;48.70;;;;;;5076209;28;20032;-70
2021/07/19 08:18:21;;;;;;;8.88;4.00;;;27.20;48.10;;;;;;5076229;28;20046;-70
2021/07/19 08:20:47;;;;;;;9.27;3.80;;;27.40;46.20;;;;;;5076289;28;20077;-69
2021/07/19 08:23:13;;;;;;;13.48;3.88;;;27.40;45.50;;;;;;5075687;28;20488;-70
2021/07/19 08:25:38;;;;;;;10.98;4.30;;;27.50;46.40;;;;;;5075966;28;20020;-72
2021/07/19 08:28:05;;;;;;;9.88;3.83;;;27.60;45.60;;;;;;5076116;28;20476;-68
2021/07/19 08:30:31;;;;;;;12.18;3.40;;;27.70;46.40;;;;;;5075688;28;20044;-72
2021/07/19 08:32:58;;;;;;;13.93;4.32;;;27.70;46.40;;;;;;5075877;28;20430;-71
2021/07/19 08:35:24;;;;;;;11.35;4.78;;;27.80;46.80;;;;;;5075793;28;20029;-68
2021/07/19 08:37:52;;;;;;;8.05;4.43;;;27.90;45.40;;;;;;5075402;28;20447;-69
2021/07/19 08:40:21;;;;;;;10.43;4.93;;;28.00;42.70;;;;;;5075763;28;20111;-71
2021/07/19 08:42:48;;;;;;;7.80;4.00;;;28.10;42.00;;;;;;5075366;28;20381;-72
2021/07/19 08:45:17;;;;;;;14.30;4.35;;;28.30;42.70;;;;;;5075283;28;20052;-70
2021/07/19 08:47:45;;;;;;;11.68;4.38;;;28.40;43.40;;;;;;5075636;28;20024;-70
2021/07/19 08:50:13;;;;;;;13.60;4.07;;;28.50;44.00;;;;;;5075438;28;20067;-70
2021/07/19 08:52:40;;;;;;;11.60;4.63;;;28.50;44.40;;;;;;5075555;28;20055;-69
2021/07/19 08:55:08;;;;;;;11.13;4.40;;;28.60;44.60;;;;;;5075403;28;20090;-69
2021/07/19 08:57:34;;;;;;;9.90;4.43;;;28.70;43.90;;;;;;5075250;28;20024;-70
2021/07/19 09:00:06;;;;;;;14.32;4.60;;;28.70;43.30;;;;;;5075359;28;20021;-70
2021/07/19 09:02:32;;;;;;;10.07;4.53;;;28.80;43.20;;;;;;5075482;28;20074;-68
2021/07/19 09:04:59;;;;;;;12.25;4.32;;;28.90;42.80;;;;;;5075093;28;20050;-70
2021/07/19 09:07:25;;;;;;;13.20;4.38;;;28.90;42.30;;;;;;5075325;28;20107;-69
2021/07/19 09:09:52;;;;;;;9.85;4.93;;;29.00;41.80;;;;;;5075176;28;20068;-72
2021/07/19 09:12:38;;;;;;;11.48;4.28;;;29.00;41.90;;;;;;5075138;28;20154;-71
2021/07/19 09:15:05;;;;;;;13.98;4.35;;;29.10;42.20;;;;;;5075010;28;20070;-73
2021/07/19 09:17:31;;;;;;;15.20;4.90;;;29.10;42.40;;;;;;5075055;28;20081;-71
2021/07/19 09:20:00;;;;;;;15.65;4.30;;;29.20;42.50;;;;;;5074865;28;20032;-70
2021/07/19 09:22:32;;;;;;;16.17;5.45;;;29.20;41.90;;;;;;5074705;28;20410;-68
2021/07/19 09:25:08;;;;;;;;;;;29.30;41.40;;;;;;5075225;28;20020;-68
2021/07/19 09:27:34;;;;;;;21.73;6.25;;;29.30;41.10;;;;;;5074848;28;20268;-70
2021/07/19 09:30:11;;;;;;;22.40;6.13;;;29.40;38.70;;;;;;5074889;28;20036;-72
2021/07/19 09:32:55;;;;;;;15.95;4.80;;;29.50;37.80;;;;;;5074830;28;20024;-71
2021/07/19 09:35:20;;;;;;;14.77;5.25;;;29.50;38.00;;;;;;5074504;28;20025;-70
2021/07/19 09:37:46;;;;;;;21.45;6.07;;;29.60;37.80;;;;;;5074693;28;20027;-71
2021/07/19 09:40:13;;;;;;;21.88;6.85;;;29.70;38.20;;;;;;5074854;28;20025;-69
2021/07/19 09:42:43;;;;;;;23.02;5.50;;;29.70;38.10;;;;;;5074804;28;20524;-70
2021/07/19 09:45:09;;;;;;;19.25;5.20;;;29.80;38.40;;;;;;5074216;28;20057;-69
2021/07/19 09:47:36;;;;;;;20.02;4.75;;;29.90;37.10;;;;;;5074419;28;20012;-69
2021/07/19 09:50:09;;;;;;;16.40;4.50;;;29.90;40.10;;;;;;5073258;28;20037;-68
2021/07/19 09:52:35;;;;;;;11.13;3.92;;;30.00;41.50;;;;;;5074376;28;20016;-68
2021/07/19 09:55:00;;;;;;;16.88;4.30;;;30.10;42.30;;;;;;5074318;28;20495;-69
2021/07/19 09:57:26;;;;;;;15.40;4.95;;;30.10;42.10;;;;;;5074385;28;20046;-70
2021/07/19 09:59:54;;;;;;;14.82;5.18;;;30.10;40.20;;;;;;5056163;28;20029;-70
2021/07/19 10:02:51;;;;;;;20.73;5.57;;;30.20;37.60;;;;;;5074103;28;20021;-71
2021/07/19 10:05:33;;;;;;;19.75;5.30;;;30.20;35.80;;;;;;5053703;28;20037;-70
2021/07/19 10:08:02;;;;;;;15.50;5.38;;;30.30;35.60;;;;;;5074103;28;20024;-71
2021/07/19 10:10:35;;;;;;;15.38;6.45;;;30.30;35.90;;;;;;5074154;28;20495;-71
2021/07/19 10:13:05;;;;;;;25.80;5.88;;;30.40;35.80;;;;;;5073872;28;20025;-71
2021/07/19 10:15:32;;;;;;;17.42;5.47;;;30.40;34.20;;;;;;5073863;28;20031;-71
2021/07/19 10:18:06;;;;;;;25.58;5.80;;;30.50;34.50;;;;;;5073929;28;20028;-69
2021/07/19 10:20:33;;;;;;;23.33;5.80;;;30.60;34.50;;;;;;5073825;28;20103;-72
2021/07/19 10:22:59;;;;;;;23.55;5.50;;;30.60;34.90;;;;;;5073573;28;20493;-69
2021/07/19 10:25:25;;;;;;;17.58;5.30;;;30.70;35.20;;;;;;5073536;28;20067;-69
2021/07/19 10:27:50;;;;;;;28.02;5.53;;;30.80;34.70;;;;;;5073568;28;20020;-68
2021/07/19 10:30:17;;;;;;;24.77;5.45;;;30.80;34.20;;;;;;5073526;28;20066;-69
2021/07/19 10:32:43;;;;;;;22.98;5.40;;;30.90;34.30;;;;;;5073508;28;20025;-69
2021/07/19 10:35:10;;;;;;;18.15;4.97;;;30.90;34.00;;;;;;5073271;28;20032;-67
2021/07/19 10:37:48;;;;;;;22.70;5.43;;;30.90;34.20;;;;;;5073433;28;20029;-70
2021/07/19 10:40:19;;;;;;;19.70;5.38;;;31.00;33.10;;;;;;5073288;28;20115;-71
2021/07/19 10:42:47;;;;;;;32.53;6.35;;;31.00;34.60;;;;;;5073670;28;20099;-68
2021/07/19 10:45:16;;;;;;;25.42;6.25;;;31.10;33.60;;;;;;5073451;28;20492;-69
2021/07/19 10:48:00;;;;;;;18.17;5.65;;;31.10;32.30;;;;;;5073540;28;20484;-69
2021/07/19 10:50:27;;;;;;;25.88;5.53;;;31.10;32.30;;;;;;5073509;28;20201;-72
2021/07/19 10:53:01;;;;;;;24.80;5.80;;;31.20;32.50;;;;;;5073175;28;20082;-68
2021/07/19 10:55:32;;;;;;;20.48;5.53;;;31.20;32.40;;;;;;5073287;28;20484;-69
2021/07/19 10:58:06;;;;;;;25.42;5.82;;;31.30;32.80;;;;;;5073441;28;20472;-72
2021/07/19 11:00:39;;;;;;;21.33;4.95;;;31.30;33.10;;;;;;5072879;28;20032;-70
2021/07/19 11:03:10;;;;;;;26.40;5.68;;;31.30;34.30;;;;;;5073268;28;20029;-68
2021/07/19 11:05:40;;;;;;;24.20;5.70;;;31.40;34.00;;;;;;5073224;28;20044;-70
2021/07/19 11:08:17;;;;;;;28.35;6.25;;;31.40;33.00;;;;;;5073201;28;20031;-68
2021/07/19 11:10:45;;;;;;;17.42;5.78;;;31.40;32.50;;;;;;5073213;28;20483;-67
2021/07/19 11:13:22;;;;;;;23.90;5.95;;;31.50;31.90;;;;;;5072763;28;20032;-71
2021/07/19 11:15:48;;;;;;;18.63;6.03;;;31.50;32.30;;;;;;5073035;28;20029;-68
2021/07/19 11:18:18;;;;;;;29.08;5.47;;;31.50;33.10;;;;;;5073289;28;20104;-69
2021/07/19 11:20:49;;;;;;;25.23;5.35;;;31.50;33.70;;;;;;5072972;28;20105;-69
2021/07/19 11:23:28;;;;;;;30.90;5.70;;;31.60;32.80;;;;;;5072977;28;20035;-70
2021/07/19 11:25:55;;;;;;;28.27;5.65;;;31.60;32.80;;;;;;5073118;28;20020;-70
2021/07/19 11:28:26;;;;;;;20.40;5.97;;;31.60;32.50;;;;;;5073263;28;20510;-70
2021/07/19 11:31:01;;;;;;;13.93;5.22;;;31.70;31.60;;;;;;5072670;28;20042;-68
2021/07/19 11:33:38;;;;;;;23.33;5.28;;;31.70;32.10;;;;;;5072792;28;20032;-71
2021/07/19 11:36:21;;;;;;;25.85;5.82;;;31.70;31.90;;;;;;5072691;28;20021;-70
2021/07/19 11:38:48;;;;;;;28.67;6.05;;;31.70;32.60;;;;;;5072668;28;20388;-68
2021/07/19 11:41:19;;;;;;;28.60;6.28;;;31.70;32.70;;;;;;5072963;28;20060;-72
2021/07/19 11:43:46;;;;;;;;;;;31.80;33.40;;;;;;5072934;28;20045;-69
2021/07/19 11:46:13;;;;;;;26.73;6.07;;;31.80;33.10;;;;;;5072657;28;20013;-67
2021/07/19 11:48:42;;;;;;;24.38;6.35;;;31.80;32.50;;;;;;5072713;28;20024;-71
2021/07/19 11:51:08;;;;;;;27.48;6.15;;;31.90;32.70;;;;;;5072723;28;20081;-68
2021/07/19 11:53:41;;;;;;;28.98;6.55;;;31.90;32.90;;;;;;5072440;28;20021;-67
2021/07/19 11:56:07;;;;;;;26.20;6.00;;;31.90;32.30;;;;;;5072560;28;20021;-67
2021/07/19 11:58:32;;;;;;;23.08;5.63;;;31.90;32.10;;;;;;5072594;28;20037;-67
2021/07/19 12:01:01;;;;;;;20.50;6.13;;;32.00;32.10;;;;;;5072419;28;20491;-67
2021/07/19 12:03:29;;;;;;;26.05;5.90;;;32.00;32.40;;;;;;5072245;28;20050;-67
2021/07/19 12:05:57;;;;;;;21.58;5.88;;;32.00;32.80;;;;;;5072331;28;20376;-67
2021/07/19 12:08:34;;;;;;;22.00;5.57;;;32.00;32.70;;;;;;5072477;28;20020;-67
2021/07/19 12:11:07;;;;;;;25.63;5.40;;;32.00;32.70;;;;;;5072226;28;20043;-67
2021/07/19 12:13:38;;;;;;;29.65;5.78;;;32.00;33.00;;;;;;5074582;28;20029;-67
2021/07/19 12:16:04;;;;;;;19.55;5.22;;;32.10;32.70;;;;;;5076101;28;20025;-67
2021/07/19 12:18:34;;;;;;;23.45;5.85;;;32.10;32.70;;;;;;5076418;28;20092;-68
2021/07/19 12:21:12;;;;;;;27.15;6.45;;;32.10;33.10;;;;;;5076445;28;20120;-68
2021/07/19 12:23:38;;;;;;;38.05;6.32;;;32.10;32.30;;;;;;5075960;28;20073;-68
2021/07/19 12:26:04;;;;;;;24.52;6.32;;;32.10;32.10;;;;;;5058032;28;20469;-67
2021/07/19 12:28:30;;;;;;;25.33;6.13;;;32.20;32.50;;;;;;5057866;28;20154;-67
2021/07/19 12:31:27;;;;;;;30.17;6.15;;;32.20;31.80;;;;;;5076106;28;20055;-67
2021/07/19 12:33:53;;;;;;;27.58;6.20;;;32.20;31.90;;;;;;5072757;28;20037;-67
2021/07/19 12:36:22;;;;;;;22.52;6.30;;;32.20;32.20;;;;;;5072694;28;20108;-67
2021/07/19 12:38:49;;;;;;;22.90;6.07;;;32.30;32.50;;;;;;5056543;28;20460;-67
2021/07/19 12:41:16;;;;;;;25.58;5.82;;;32.30;32.70;;;;;;5075620;28;20028;-67
2021/07/19 12:43:43;;;;;;;19.13;5.53;;;32.30;32.10;;;;;;5075919;28;20125;-67
2021/07/19 12:46:13;;;;;;;31.13;5.93;;;32.30;32.10;;;;;;5075664;28;20024;-67
2021/07/19 12:48:44;;;;;;;28.40;5.75;;;32.30;31.50;;;;;;5075354;28;20020;-67
2021/07/19 12:51:10;;;;;;;28.98;7.10;;;32.30;32.00;;;;;;5075566;28;20029;-67
2021/07/19 12:53:36;;;;;;;22.10;5.45;;;32.40;31.60;;;;;;5075480;28;20372;-67